Carbon Glow, Kentucky
Current Conditions -  °F | °C
As of 12:55 PM on Monday 24 Nov 2014 (Local Time) from KLNP Reporting Station
Overcast Overcast  
Wind Chill: 61°   Ceiling: 4300
Heat Index: 61°   Visibility: 10mi
Dew Point: 43°   Wind: 21mph
Humidity: 52%   Direction: 220°SW
Pressure: 29.7"   Gusts: 30mph
Location:  37.1619°N, 82.9955°W
Report Text: KLNP 241755Z AUTO 22018G26KT 10SM BKN043 OVC060 16/06 A2970 RMK AO2
Loading
Personal Weather Stations






























Interactive Weather Map New forecast layout! Learn more

10-Day Weather Forecast

Advertisements
Track Severe Weather on mobile